sensor_id;sensor_type;location;lat;lon;timestamp;temperature;humidity
44170;DHT22;29836;52.286;9.576;2023-09-19T00:01:33;14.70;99.90
44170;DHT22;29836;52.286;9.576;2023-09-19T00:03:59;14.70;99.90
44170;DHT22;29836;52.286;9.576;2023-09-19T00:06:29;14.70;99.90
44170;DHT22;29836;52.286;9.576;2023-09-19T00:08:57;14.70;99.90
44170;DHT22;29836;52.286;9.576;2023-09-19T00:11:24;14.80;99.90
44170;DHT22;29836;52.286;9.576;2023-09-19T00:13:52;14.70;99.90
44170;DHT22;29836;52.286;9.576;2023-09-19T00:16:18;14.70;99.90
44170;DHT22;29836;52.286;9.576;2023-09-19T00:18:44;14.70;99.90
44170;DHT22;29836;52.286;9.576;2023-09-19T00:21:10;14.70;99.90
44170;DHT22;29836;52.286;9.576;2023-09-19T00:23:35;14.60;99.90
44170;DHT22;29836;52.286;9.576;2023-09-19T00:26:01;14.70;99.90
44170;DHT22;29836;52.286;9.576;2023-09-19T00:28:27;14.70;99.90
44170;DHT22;29836;52.286;9.576;2023-09-19T00:30:53;14.80;99.90
44170;DHT22;29836;52.286;9.576;2023-09-19T00:33:21;14.80;99.90
44170;DHT22;29836;52.286;9.576;2023-09-19T00:35:50;14.90;99.90
44170;DHT22;29836;52.286;9.576;2023-09-19T00:38:15;14.80;99.90
44170;DHT22;29836;52.286;9.576;2023-09-19T00:40:46;14.80;99.90
44170;DHT22;29836;52.286;9.576;2023-09-19T00:43:11;14.70;99.90
44170;DHT22;29836;52.286;9.576;2023-09-19T00:45:37;14.80;99.90
44170;DHT22;29836;52.286;9.576;2023-09-19T00:48:04;14.80;99.90
44170;DHT22;29836;52.286;9.576;2023-09-19T00:50:32;14.70;99.90
44170;DHT22;29836;52.286;9.576;2023-09-19T00:52:58;14.70;99.90
44170;DHT22;29836;52.286;9.576;2023-09-19T00:55:25;14.70;99.90
44170;DHT22;29836;52.286;9.576;2023-09-19T00:57:51;14.60;99.90
44170;DHT22;29836;52.286;9.576;2023-09-19T01:00:18;14.70;99.90
44170;DHT22;29836;52.286;9.576;2023-09-19T01:02:45;14.70;99.90
44170;DHT22;29836;52.286;9.576;2023-09-19T01:05:12;14.60;99.90
44170;DHT22;29836;52.286;9.576;2023-09-19T01:07:38;14.60;99.90
44170;DHT22;29836;52.286;9.576;2023-09-19T01:10:08;14.60;99.90
44170;DHT22;29836;52.286;9.576;2023-09-19T01:15:38;14.80;99.90
44170;DHT22;29836;52.286;9.576;2023-09-19T01:26:27;15.10;99.90
44170;DHT22;29836;52.286;9.576;2023-09-19T01:29:05;15.10;99.90
44170;DHT22;29836;52.286;9.576;2023-09-19T01:31:40;15.10;99.90
44170;DHT22;29836;52.286;9.576;2023-09-19T01:34:07;15.10;99.90
44170;DHT22;29836;52.286;9.576;2023-09-19T01:36:37;15.20;99.90
44170;DHT22;29836;52.286;9.576;2023-09-19T01:39:09;15.20;99.90
44170;DHT22;29836;52.286;9.576;2023-09-19T01:41:47;15.30;99.90
44170;DHT22;29836;52.286;9.576;2023-09-19T01:44:30;15.30;99.90
44170;DHT22;29836;52.286;9.576;2023-09-19T01:46:59;15.30;99.90
44170;DHT22;29836;52.286;9.576;2023-09-19T01:49:44;15.20;99.90
44170;DHT22;29836;52.286;9.576;2023-09-19T01:52:14;15.30;99.90
44170;DHT22;29836;52.286;9.576;2023-09-19T01:54:50;15.30;99.90
44170;DHT22;29836;52.286;9.576;2023-09-19T01:57:30;15.30;99.90
44170;DHT22;29836;52.286;9.576;2023-09-19T02:00:18;15.30;99.90
44170;DHT22;29836;52.286;9.576;2023-09-19T02:02:47;15.20;99.90
44170;DHT22;29836;52.286;9.576;2023-09-19T02:05:13;15.10;99.90
44170;DHT22;29836;52.286;9.576;2023-09-19T02:07:47;15.20;99.90
44170;DHT22;29836;52.286;9.576;2023-09-19T02:10:13;15.10;99.90
44170;DHT22;29836;52.286;9.576;2023-09-19T02:12:39;15.10;99.90
44170;DHT22;29836;52.286;9.576;2023-09-19T02:15:05;15.00;99.90
44170;DHT22;29836;52.286;9.576;2023-09-19T02:17:32;15.00;99.90
44170;DHT22;29836;52.286;9.576;2023-09-19T02:19:57;14.90;99.90
44170;DHT22;29836;52.286;9.576;2023-09-19T02:22:24;14.80;99.90
44170;DHT22;29836;52.286;9.576;2023-09-19T02:24:50;14.80;99.90
44170;DHT22;29836;52.286;9.576;2023-09-19T02:27:16;14.80;99.90
44170;DHT22;29836;52.286;9.576;2023-09-19T02:29:43;14.70;99.90
44170;DHT22;29836;52.286;9.576;2023-09-19T02:32:08;14.70;99.90
44170;DHT22;29836;52.286;9.576;2023-09-19T02:34:37;14.70;99.90
44170;DHT22;29836;52.286;9.576;2023-09-19T02:37:05;14.70;99.90
44170;DHT22;29836;52.286;9.576;2023-09-19T02:39:31;14.70;99.90
44170;DHT22;29836;52.286;9.576;2023-09-19T02:41:57;14.60;99.90
44170;DHT22;29836;52.286;9.576;2023-09-19T02:44:23;14.60;99.90
44170;DHT22;29836;52.286;9.576;2023-09-19T02:46:49;14.60;99.90
44170;DHT22;29836;52.286;9.576;2023-09-19T02:49:15;14.70;99.90
44170;DHT22;29836;52.286;9.576;2023-09-19T02:51:41;14.60;99.90
44170;DHT22;29836;52.286;9.576;2023-09-19T02:54:07;14.60;99.90
44170;DHT22;29836;52.286;9.576;2023-09-19T02:56:33;14.60;99.90
44170;DHT22;29836;52.286;9.576;2023-09-19T02:58:58;14.60;99.90
44170;DHT22;29836;52.286;9.576;2023-09-19T03:01:26;14.60;99.90
44170;DHT22;29836;52.286;9.576;2023-09-19T03:03:52;14.60;99.90
44170;DHT22;29836;52.286;9.576;2023-09-19T03:06:19;14.60;99.90
44170;DHT22;29836;52.286;9.576;2023-09-19T03:08:45;14.50;99.90
44170;DHT22;29836;52.286;9.576;2023-09-19T03:11:12;14.50;99.90
44170;DHT22;29836;52.286;9.576;2023-09-19T03:13:40;14.50;99.90
44170;DHT22;29836;52.286;9.576;2023-09-19T03:16:07;14.40;99.90
44170;DHT22;29836;52.286;9.576;2023-09-19T03:18:35;14.30;99.90
44170;DHT22;29836;52.286;9.576;2023-09-19T03:21:01;14.30;99.90
44170;DHT22;29836;52.286;9.576;2023-09-19T03:23:27;14.20;99.90
44170;DHT22;29836;52.286;9.576;2023-09-19T03:25:53;14.10;99.90
44170;DHT22;29836;52.286;9.576;2023-09-19T03:28:19;14.10;99.90
44170;DHT22;29836;52.286;9.576;2023-09-19T03:30:46;14.10;99.90
44170;DHT22;29836;52.286;9.576;2023-09-19T03:33:12;14.10;99.90
44170;DHT22;29836;52.286;9.576;2023-09-19T03:35:39;14.10;99.90
44170;DHT22;29836;52.286;9.576;2023-09-19T03:38:05;14.10;99.90
44170;DHT22;29836;52.286;9.576;2023-09-19T03:40:30;14.00;99.90
44170;DHT22;29836;52.286;9.576;2023-09-19T03:42:56;14.00;99.90
44170;DHT22;29836;52.286;9.576;2023-09-19T03:45:21;13.90;99.90
44170;DHT22;29836;52.286;9.576;2023-09-19T03:47:47;13.90;99.90
44170;DHT22;29836;52.286;9.576;2023-09-19T03:50:13;13.90;99.90
44170;DHT22;29836;52.286;9.576;2023-09-19T03:52:43;13.80;99.90
44170;DHT22;29836;52.286;9.576;2023-09-19T03:55:09;13.80;99.90
44170;DHT22;29836;52.286;9.576;2023-09-19T03:57:35;13.80;99.90
44170;DHT22;29836;52.286;9.576;2023-09-19T04:00:02;13.90;99.90
44170;DHT22;29836;52.286;9.576;2023-09-19T04:02:27;13.90;99.90
44170;DHT22;29836;52.286;9.576;2023-09-19T04:04:58;14.00;99.90
44170;DHT22;29836;52.286;9.576;2023-09-19T04:07:24;14.10;99.90
44170;DHT22;29836;52.286;9.576;2023-09-19T04:09:51;14.20;99.90
44170;DHT22;29836;52.286;9.576;2023-09-19T04:12:19;14.20;99.90
44170;DHT22;29836;52.286;9.576;2023-09-19T04:14:44;14.10;99.90
44170;DHT22;29836;52.286;9.576;2023-09-19T04:17:10;14.00;99.90
44170;DHT22;29836;52.286;9.576;2023-09-19T04:19:36;13.90;99.90
44170;DHT22;29836;52.286;9.576;2023-09-19T04:22:02;13.90;99.90
44170;DHT22;29836;52.286;9.576;2023-09-19T04:24:28;13.80;99.90
44170;DHT22;29836;52.286;9.576;2023-09-19T04:26:54;13.70;99.90
44170;DHT22;29836;52.286;9.576;2023-09-19T04:29:19;13.70;99.90
44170;DHT22;29836;52.286;9.576;2023-09-19T04:31:45;13.60;99.90
44170;DHT22;29836;52.286;9.576;2023-09-19T04:34:11;13.70;99.90
44170;DHT22;29836;52.286;9.576;2023-09-19T04:36:43;13.70;99.90
44170;DHT22;29836;52.286;9.576;2023-09-19T04:39:09;13.70;99.90
44170;DHT22;29836;52.286;9.576;2023-09-19T04:41:37;13.70;99.90
44170;DHT22;29836;52.286;9.576;2023-09-19T04:44:07;13.70;99.90
44170;DHT22;29836;52.286;9.576;2023-09-19T04:46:35;13.70;99.90
44170;DHT22;29836;52.286;9.576;2023-09-19T04:49:01;13.70;99.90
44170;DHT22;29836;52.286;9.576;2023-09-19T04:51:27;13.70;99.90
44170;DHT22;29836;52.286;9.576;2023-09-19T04:53:58;13.70;99.90
44170;DHT22;29836;52.286;9.576;2023-09-19T04:56:23;13.70;99.90
44170;DHT22;29836;52.286;9.576;2023-09-19T04:58:49;13.70;99.90
44170;DHT22;29836;52.286;9.576;2023-09-19T05:01:15;13.60;99.90
44170;DHT22;29836;52.286;9.576;2023-09-19T05:03:40;13.60;99.90
44170;DHT22;29836;52.286;9.576;2023-09-19T05:06:06;13.60;99.90
44170;DHT22;29836;52.286;9.576;2023-09-19T05:08:31;13.60;99.90
44170;DHT22;29836;52.286;9.576;2023-09-19T05:10:57;13.60;99.90
44170;DHT22;29836;52.286;9.576;2023-09-19T05:13:23;13.60;99.90
44170;DHT22;29836;52.286;9.576;2023-09-19T05:15:49;13.60;99.90
44170;DHT22;29836;52.286;9.576;2023-09-19T05:18:18;13.60;99.90
44170;DHT22;29836;52.286;9.576;2023-09-19T05:20:43;13.60;99.90
44170;DHT22;29836;52.286;9.576;2023-09-19T05:23:09;13.60;99.90
44170;DHT22;29836;52.286;9.576;2023-09-19T05:25:38;13.60;99.90
44170;DHT22;29836;52.286;9.576;2023-09-19T05:28:05;13.60;99.90
44170;DHT22;29836;52.286;9.576;2023-09-19T05:30:31;13.60;99.90
44170;DHT22;29836;52.286;9.576;2023-09-19T05:32:57;13.60;99.90
44170;DHT22;29836;52.286;9.576;2023-09-19T05:35:23;13.60;99.90
44170;DHT22;29836;52.286;9.576;2023-09-19T05:37:53;13.60;99.90
44170;DHT22;29836;52.286;9.576;2023-09-19T05:40:20;13.70;99.90
44170;DHT22;29836;52.286;9.576;2023-09-19T05:42:46;13.60;99.90
44170;DHT22;29836;52.286;9.576;2023-09-19T05:45:13;13.60;99.90
44170;DHT22;29836;52.286;9.576;2023-09-19T05:47:42;13.60;99.90
44170;DHT22;29836;52.286;9.576;2023-09-19T05:50:09;13.50;99.90
44170;DHT22;29836;52.286;9.576;2023-09-19T05:52:38;13.50;99.90
44170;DHT22;29836;52.286;9.576;2023-09-19T05:55:07;13.50;99.90
44170;DHT22;29836;52.286;9.576;2023-09-19T05:57:36;13.60;99.90
44170;DHT22;29836;52.286;9.576;2023-09-19T06:00:08;13.60;99.90
44170;DHT22;29836;52.286;9.576;2023-09-19T06:02:36;13.60;99.90
44170;DHT22;29836;52.286;9.576;2023-09-19T06:05:06;13.60;99.90
44170;DHT22;29836;52.286;9.576;2023-09-19T06:07:32;13.70;99.90
44170;DHT22;29836;52.286;9.576;2023-09-19T06:10:05;13.70;99.90
44170;DHT22;29836;52.286;9.576;2023-09-19T06:12:32;13.80;99.90
44170;DHT22;29836;52.286;9.576;2023-09-19T06:15:00;13.90;99.90
44170;DHT22;29836;52.286;9.576;2023-09-19T06:17:26;14.00;99.90
44170;DHT22;29836;52.286;9.576;2023-09-19T06:19:53;14.10;99.90
44170;DHT22;29836;52.286;9.576;2023-09-19T06:22:22;14.10;99.90
44170;DHT22;29836;52.286;9.576;2023-09-19T06:24:47;14.10;99.90
44170;DHT22;29836;52.286;9.576;2023-09-19T06:27:13;14.20;99.90
44170;DHT22;29836;52.286;9.576;2023-09-19T06:29:39;14.30;99.90
44170;DHT22;29836;52.286;9.576;2023-09-19T06:32:08;14.30;99.90
44170;DHT22;29836;52.286;9.576;2023-09-19T06:34:35;14.30;99.90
44170;DHT22;29836;52.286;9.576;2023-09-19T06:37:01;14.40;99.90
44170;DHT22;29836;52.286;9.576;2023-09-19T06:39:28;14.50;99.90
44170;DHT22;29836;52.286;9.576;2023-09-19T06:41:54;14.50;99.90
44170;DHT22;29836;52.286;9.576;2023-09-19T06:44:19;14.60;99.90
44170;DHT22;29836;52.286;9.576;2023-09-19T06:46:50;14.60;99.90
44170;DHT22;29836;52.286;9.576;2023-09-19T06:49:17;14.70;99.90
44170;DHT22;29836;52.286;9.576;2023-09-19T06:51:43;14.70;99.90
44170;DHT22;29836;52.286;9.576;2023-09-19T06:54:09;14.80;99.90
44170;DHT22;29836;52.286;9.576;2023-09-19T06:56:35;15.00;99.90
44170;DHT22;29836;52.286;9.576;2023-09-19T06:59:00;15.50;99.90
44170;DHT22;29836;52.286;9.576;2023-09-19T07:01:28;15.80;99.90
44170;DHT22;29836;52.286;9.576;2023-09-19T07:03:53;15.80;99.90
44170;DHT22;29836;52.286;9.576;2023-09-19T07:06:19;15.80;99.90
44170;DHT22;29836;52.286;9.576;2023-09-19T07:08:44;15.80;99.90
44170;DHT22;29836;52.286;9.576;2023-09-19T07:11:10;15.80;99.90
44170;DHT22;29836;52.286;9.576;2023-09-19T07:13:38;15.80;99.90
44170;DHT22;29836;52.286;9.576;2023-09-19T07:16:04;15.80;99.90
44170;DHT22;29836;52.286;9.576;2023-09-19T07:18:29;15.80;99.90
44170;DHT22;29836;52.286;9.576;2023-09-19T07:20:58;16.00;99.90
44170;DHT22;29836;52.286;9.576;2023-09-19T07:23:31;16.10;99.90
44170;DHT22;29836;52.286;9.576;2023-09-19T07:26:00;16.20;99.90
44170;DHT22;29836;52.286;9.576;2023-09-19T07:28:26;16.30;99.90
44170;DHT22;29836;52.286;9.576;2023-09-19T07:30:53;16.30;99.90
44170;DHT22;29836;52.286;9.576;2023-09-19T07:33:19;16.40;99.90
44170;DHT22;29836;52.286;9.576;2023-09-19T07:35:47;16.40;99.90
44170;DHT22;29836;52.286;9.576;2023-09-19T07:38:13;16.50;99.90
44170;DHT22;29836;52.286;9.576;2023-09-19T07:40:39;16.50;99.90
44170;DHT22;29836;52.286;9.576;2023-09-19T07:43:05;16.60;99.90
44170;DHT22;29836;52.286;9.576;2023-09-19T07:45:32;16.70;99.90
44170;DHT22;29836;52.286;9.576;2023-09-19T07:47:58;16.70;99.90
44170;DHT22;29836;52.286;9.576;2023-09-19T07:50:26;16.60;99.90
44170;DHT22;29836;52.286;9.576;2023-09-19T07:52:52;16.60;99.90
44170;DHT22;29836;52.286;9.576;2023-09-19T07:55:19;16.50;99.90
44170;DHT22;29836;52.286;9.576;2023-09-19T07:57:48;16.50;99.90
44170;DHT22;29836;52.286;9.576;2023-09-19T08:00:15;16.50;99.90
44170;DHT22;29836;52.286;9.576;2023-09-19T08:02:41;16.40;99.90
44170;DHT22;29836;52.286;9.576;2023-09-19T08:05:08;16.50;99.90
44170;DHT22;29836;52.286;9.576;2023-09-19T08:07:41;16.50;99.90
44170;DHT22;29836;52.286;9.576;2023-09-19T08:10:08;16.60;99.90
44170;DHT22;29836;52.286;9.576;2023-09-19T08:12:37;16.70;99.90
44170;DHT22;29836;52.286;9.576;2023-09-19T08:15:03;16.70;99.90
44170;DHT22;29836;52.286;9.576;2023-09-19T08:17:33;16.80;99.90
44170;DHT22;29836;52.286;9.576;2023-09-19T08:19:59;16.90;99.90
44170;DHT22;29836;52.286;9.576;2023-09-19T08:22:25;17.20;99.90
44170;DHT22;29836;52.286;9.576;2023-09-19T08:24:52;17.30;99.90
44170;DHT22;29836;52.286;9.576;2023-09-19T08:27:18;17.60;99.90
44170;DHT22;29836;52.286;9.576;2023-09-19T08:29:44;17.80;99.90
44170;DHT22;29836;52.286;9.576;2023-09-19T08:32:11;17.80;99.90
44170;DHT22;29836;52.286;9.576;2023-09-19T08:34:37;18.00;99.90
44170;DHT22;29836;52.286;9.576;2023-09-19T08:37:04;18.30;99.90
44170;DHT22;29836;52.286;9.576;2023-09-19T08:39:30;18.60;99.90
44170;DHT22;29836;52.286;9.576;2023-09-19T08:42:00;19.00;99.90
44170;DHT22;29836;52.286;9.576;2023-09-19T08:44:26;19.90;98.10
44170;DHT22;29836;52.286;9.576;2023-09-19T08:47:00;20.90;95.70
44170;DHT22;29836;52.286;9.576;2023-09-19T08:49:55;21.20;94.30
44170;DHT22;29836;52.286;9.576;2023-09-19T08:52:32;21.30;93.80
44170;DHT22;29836;52.286;9.576;2023-09-19T08:55:02;21.20;93.30
44170;DHT22;29836;52.286;9.576;2023-09-19T08:57:33;21.10;92.60
44170;DHT22;29836;52.286;9.576;2023-09-19T09:00:01;21.40;93.00
44170;DHT22;29836;52.286;9.576;2023-09-19T09:02:27;21.50;92.60
44170;DHT22;29836;52.286;9.576;2023-09-19T09:04:54;21.90;91.60
44170;DHT22;29836;52.286;9.576;2023-09-19T09:07:20;21.40;92.10
44170;DHT22;29836;52.286;9.576;2023-09-19T09:09:47;21.20;92.20
44170;DHT22;29836;52.286;9.576;2023-09-19T09:12:14;21.10;92.10
44170;DHT22;29836;52.286;9.576;2023-09-19T09:14:44;21.40;91.90
44170;DHT22;29836;52.286;9.576;2023-09-19T09:17:10;21.60;91.60
44170;DHT22;29836;52.286;9.576;2023-09-19T09:19:37;21.80;91.60
44170;DHT22;29836;52.286;9.576;2023-09-19T09:22:10;22.10;91.30
44170;DHT22;29836;52.286;9.576;2023-09-19T09:24:37;22.20;89.90
44170;DHT22;29836;52.286;9.576;2023-09-19T09:27:05;22.10;90.20
44170;DHT22;29836;52.286;9.576;2023-09-19T09:29:49;22.60;88.80
44170;DHT22;29836;52.286;9.576;2023-09-19T09:32:28;22.40;88.70
44170;DHT22;29836;52.286;9.576;2023-09-19T09:34:56;22.30;89.80
44170;DHT22;29836;52.286;9.576;2023-09-19T09:37:23;22.60;86.40
44170;DHT22;29836;52.286;9.576;2023-09-19T09:42:35;22.50;88.40
44170;DHT22;29836;52.286;9.576;2023-09-19T09:45:22;22.60;87.60
44170;DHT22;29836;52.286;9.576;2023-09-19T09:48:02;22.90;86.00
44170;DHT22;29836;52.286;9.576;2023-09-19T09:50:35;23.70;84.70
44170;DHT22;29836;52.286;9.576;2023-09-19T09:53:03;24.10;84.00
44170;DHT22;29836;52.286;9.576;2023-09-19T09:56:07;24.30;82.30
44170;DHT22;29836;52.286;9.576;2023-09-19T09:58:37;24.10;81.00
44170;DHT22;29836;52.286;9.576;2023-09-19T10:01:04;23.80;81.20
44170;DHT22;29836;52.286;9.576;2023-09-19T10:03:40;23.40;82.10
44170;DHT22;29836;52.286;9.576;2023-09-19T10:06:13;23.40;82.90
44170;DHT22;29836;52.286;9.576;2023-09-19T10:11:48;23.30;83.50
44170;DHT22;29836;52.286;9.576;2023-09-19T10:14:24;23.40;83.00
44170;DHT22;29836;52.286;9.576;2023-09-19T10:16:53;23.90;80.80
44170;DHT22;29836;52.286;9.576;2023-09-19T10:19:30;23.90;80.80
44170;DHT22;29836;52.286;9.576;2023-09-19T10:21:59;23.50;81.20
44170;DHT22;29836;52.286;9.576;2023-09-19T10:24:26;24.30;81.40
44170;DHT22;29836;52.286;9.576;2023-09-19T10:26:53;24.00;78.70
44170;DHT22;29836;52.286;9.576;2023-09-19T10:29:21;24.60;79.00
44170;DHT22;29836;52.286;9.576;2023-09-19T10:31:52;25.10;78.60
44170;DHT22;29836;52.286;9.576;2023-09-19T10:34:19;25.60;76.00
44170;DHT22;29836;52.286;9.576;2023-09-19T10:36:46;25.70;75.80
44170;DHT22;29836;52.286;9.576;2023-09-19T10:39:16;25.70;76.60
44170;DHT22;29836;52.286;9.576;2023-09-19T10:41:53;26.40;73.60
44170;DHT22;29836;52.286;9.576;2023-09-19T10:44:24;26.30;74.70
44170;DHT22;29836;52.286;9.576;2023-09-19T10:46:54;25.30;74.20
44170;DHT22;29836;52.286;9.576;2023-09-19T10:49:21;24.90;75.60
44170;DHT22;29836;52.286;9.576;2023-09-19T10:51:49;25.10;76.50
44170;DHT22;29836;52.286;9.576;2023-09-19T10:54:19;24.60;75.90
44170;DHT22;29836;52.286;9.576;2023-09-19T10:56:49;24.50;75.80
44170;DHT22;29836;52.286;9.576;2023-09-19T10:59:17;24.60;76.10
44170;DHT22;29836;52.286;9.576;2023-09-19T11:04:31;24.30;75.70
44170;DHT22;29836;52.286;9.576;2023-09-19T11:07:06;24.00;75.90
44170;DHT22;29836;52.286;9.576;2023-09-19T11:09:50;23.90;76.00
44170;DHT22;29836;52.286;9.576;2023-09-19T11:14:59;22.60;78.80
44170;DHT22;29836;52.286;9.576;2023-09-19T11:17:38;22.60;80.50
44170;DHT22;29836;52.286;9.576;2023-09-19T11:30:51;21.80;82.80
44170;DHT22;29836;52.286;9.576;2023-09-19T11:36:13;21.80;82.00
44170;DHT22;29836;52.286;9.576;2023-09-19T11:49:19;21.80;83.70
44170;DHT22;29836;52.286;9.576;2023-09-19T11:51:50;21.90;82.80
44170;DHT22;29836;52.286;9.576;2023-09-19T11:54:19;21.70;83.30
44170;DHT22;29836;52.286;9.576;2023-09-19T11:56:52;21.50;84.20
44170;DHT22;29836;52.286;9.576;2023-09-19T12:01:52;21.30;83.80
44170;DHT22;29836;52.286;9.576;2023-09-19T12:07:04;21.10;84.10
44170;DHT22;29836;52.286;9.576;2023-09-19T12:09:31;21.10;84.50
44170;DHT22;29836;52.286;9.576;2023-09-19T12:11:57;21.10;84.20
44170;DHT22;29836;52.286;9.576;2023-09-19T12:14:24;21.00;84.40
44170;DHT22;29836;52.286;9.576;2023-09-19T12:16:55;20.70;85.70
44170;DHT22;29836;52.286;9.576;2023-09-19T12:19:21;20.90;85.40
44170;DHT22;29836;52.286;9.576;2023-09-19T12:22:03;20.80;85.10
44170;DHT22;29836;52.286;9.576;2023-09-19T12:24:34;21.00;87.00
44170;DHT22;29836;52.286;9.576;2023-09-19T12:27:05;21.20;86.60
44170;DHT22;29836;52.286;9.576;2023-09-19T12:29:41;21.20;85.00
44170;DHT22;29836;52.286;9.576;2023-09-19T12:32:06;21.20;83.30
44170;DHT22;29836;52.286;9.576;2023-09-19T12:34:33;21.00;83.10
44170;DHT22;29836;52.286;9.576;2023-09-19T12:37:14;20.70;85.60
44170;DHT22;29836;52.286;9.576;2023-09-19T12:39:48;20.90;85.50
44170;DHT22;29836;52.286;9.576;2023-09-19T12:42:15;21.00;86.00
44170;DHT22;29836;52.286;9.576;2023-09-19T12:44:51;21.00;85.10
44170;DHT22;29836;52.286;9.576;2023-09-19T12:47:23;21.10;85.50
44170;DHT22;29836;52.286;9.576;2023-09-19T12:50:14;21.20;85.50
44170;DHT22;29836;52.286;9.576;2023-09-19T12:52:49;21.30;86.00
44170;DHT22;29836;52.286;9.576;2023-09-19T13:00:41;21.30;83.40
44170;DHT22;29836;52.286;9.576;2023-09-19T13:03:30;21.10;83.90
44170;DHT22;29836;52.286;9.576;2023-09-19T13:05:59;21.30;85.30
44170;DHT22;29836;52.286;9.576;2023-09-19T13:08:38;21.40;85.20
44170;DHT22;29836;52.286;9.576;2023-09-19T13:11:11;21.30;83.80
44170;DHT22;29836;52.286;9.576;2023-09-19T13:16:05;20.70;85.20
44170;DHT22;29836;52.286;9.576;2023-09-19T13:19:06;20.50;85.60
44170;DHT22;29836;52.286;9.576;2023-09-19T13:21:32;20.50;86.00
44170;DHT22;29836;52.286;9.576;2023-09-19T13:24:22;20.50;85.50
44170;DHT22;29836;52.286;9.576;2023-09-19T13:26:52;20.30;87.20
44170;DHT22;29836;52.286;9.576;2023-09-19T13:29:18;20.30;89.00
44170;DHT22;29836;52.286;9.576;2023-09-19T13:31:53;20.30;89.50
44170;DHT22;29836;52.286;9.576;2023-09-19T13:34:21;20.30;87.70
44170;DHT22;29836;52.286;9.576;2023-09-19T13:36:47;20.30;86.20
44170;DHT22;29836;52.286;9.576;2023-09-19T13:39:14;20.20;87.70
44170;DHT22;29836;52.286;9.576;2023-09-19T13:41:41;20.10;87.90
44170;DHT22;29836;52.286;9.576;2023-09-19T13:44:09;20.10;88.60
44170;DHT22;29836;52.286;9.576;2023-09-19T13:46:36;20.10;90.20
44170;DHT22;29836;52.286;9.576;2023-09-19T13:49:02;20.00;89.30
44170;DHT22;29836;52.286;9.576;2023-09-19T13:51:30;20.00;89.70
44170;DHT22;29836;52.286;9.576;2023-09-19T13:53:56;19.90;89.80
44170;DHT22;29836;52.286;9.576;2023-09-19T13:56:21;19.90;89.90
44170;DHT22;29836;52.286;9.576;2023-09-19T13:58:47;19.90;88.60
44170;DHT22;29836;52.286;9.576;2023-09-19T14:01:13;19.80;88.20
44170;DHT22;29836;52.286;9.576;2023-09-19T14:03:39;19.70;88.80
44170;DHT22;29836;52.286;9.576;2023-09-19T14:06:05;19.70;89.90
44170;DHT22;29836;52.286;9.576;2023-09-19T14:08:31;19.70;89.50
44170;DHT22;29836;52.286;9.576;2023-09-19T14:10:58;19.70;90.30
44170;DHT22;29836;52.286;9.576;2023-09-19T14:13:24;19.70;90.50
44170;DHT22;29836;52.286;9.576;2023-09-19T14:15:51;19.60;90.40
44170;DHT22;29836;52.286;9.576;2023-09-19T14:18:16;19.70;90.80
44170;DHT22;29836;52.286;9.576;2023-09-19T14:20:43;19.70;90.30
44170;DHT22;29836;52.286;9.576;2023-09-19T14:23:09;19.70;90.00
44170;DHT22;29836;52.286;9.576;2023-09-19T14:25:35;19.80;88.30
44170;DHT22;29836;52.286;9.576;2023-09-19T14:28:02;19.80;88.20
44170;DHT22;29836;52.286;9.576;2023-09-19T14:30:27;19.70;88.90
44170;DHT22;29836;52.286;9.576;2023-09-19T14:32:53;19.80;89.30
44170;DHT22;29836;52.286;9.576;2023-09-19T14:35:19;19.80;90.00
44170;DHT22;29836;52.286;9.576;2023-09-19T14:37:44;19.90;89.70
44170;DHT22;29836;52.286;9.576;2023-09-19T14:40:11;19.90;88.80
44170;DHT22;29836;52.286;9.576;2023-09-19T14:42:39;20.00;88.00
44170;DHT22;29836;52.286;9.576;2023-09-19T14:45:05;19.90;89.30
44170;DHT22;29836;52.286;9.576;2023-09-19T14:47:32;19.70;89.90
44170;DHT22;29836;52.286;9.576;2023-09-19T14:50:00;19.60;89.90
44170;DHT22;29836;52.286;9.576;2023-09-19T14:52:26;19.50;89.40
44170;DHT22;29836;52.286;9.576;2023-09-19T14:54:53;19.50;90.20
44170;DHT22;29836;52.286;9.576;2023-09-19T14:57:19;19.60;89.70
44170;DHT22;29836;52.286;9.576;2023-09-19T14:59:45;19.70;89.30
44170;DHT22;29836;52.286;9.576;2023-09-19T15:02:11;19.80;89.70
44170;DHT22;29836;52.286;9.576;2023-09-19T15:04:36;20.20;88.60
44170;DHT22;29836;52.286;9.576;2023-09-19T15:07:06;20.60;88.30
44170;DHT22;29836;52.286;9.576;2023-09-19T15:09:31;21.20;86.90
44170;DHT22;29836;52.286;9.576;2023-09-19T15:11:59;21.40;83.90
44170;DHT22;29836;52.286;9.576;2023-09-19T15:14:25;21.80;85.50
44170;DHT22;29836;52.286;9.576;2023-09-19T15:16:50;22.10;85.00
44170;DHT22;29836;52.286;9.576;2023-09-19T15:19:16;22.60;84.70
44170;DHT22;29836;52.286;9.576;2023-09-19T15:21:43;22.80;82.90
44170;DHT22;29836;52.286;9.576;2023-09-19T15:24:08;22.70;80.60
44170;DHT22;29836;52.286;9.576;2023-09-19T15:26:35;22.80;82.90
44170;DHT22;29836;52.286;9.576;2023-09-19T15:29:05;22.90;80.70
44170;DHT22;29836;52.286;9.576;2023-09-19T15:31:31;23.10;81.20
44170;DHT22;29836;52.286;9.576;2023-09-19T15:33:56;23.30;82.10
44170;DHT22;29836;52.286;9.576;2023-09-19T15:36:23;23.20;81.50
44170;DHT22;29836;52.286;9.576;2023-09-19T15:41:25;22.40;81.90
44170;DHT22;29836;52.286;9.576;2023-09-19T15:43:52;22.00;83.60
44170;DHT22;29836;52.286;9.576;2023-09-19T15:46:19;21.80;85.40
44170;DHT22;29836;52.286;9.576;2023-09-19T15:48:45;21.40;86.80
44170;DHT22;29836;52.286;9.576;2023-09-19T15:51:11;20.90;86.40
44170;DHT22;29836;52.286;9.576;2023-09-19T15:53:49;20.50;87.60
44170;DHT22;29836;52.286;9.576;2023-09-19T15:56:19;20.50;88.90
44170;DHT22;29836;52.286;9.576;2023-09-19T15:58:52;20.30;88.90
44170;DHT22;29836;52.286;9.576;2023-09-19T16:01:19;20.20;90.50
44170;DHT22;29836;52.286;9.576;2023-09-19T16:03:50;20.10;90.40
44170;DHT22;29836;52.286;9.576;2023-09-19T16:06:20;20.10;90.20
44170;DHT22;29836;52.286;9.576;2023-09-19T16:08:50;20.00;90.20
44170;DHT22;29836;52.286;9.576;2023-09-19T16:11:17;19.80;89.50
44170;DHT22;29836;52.286;9.576;2023-09-19T16:13:43;19.70;90.50
44170;DHT22;29836;52.286;9.576;2023-09-19T16:16:11;19.70;90.40
44170;DHT22;29836;52.286;9.576;2023-09-19T16:18:38;19.50;91.00
44170;DHT22;29836;52.286;9.576;2023-09-19T16:21:05;19.50;90.30
44170;DHT22;29836;52.286;9.576;2023-09-19T16:23:31;19.40;90.30
44170;DHT22;29836;52.286;9.576;2023-09-19T16:26:07;19.30;90.90
44170;DHT22;29836;52.286;9.576;2023-09-19T16:28:39;19.10;91.20
44170;DHT22;29836;52.286;9.576;2023-09-19T16:31:06;19.00;91.30
44170;DHT22;29836;52.286;9.576;2023-09-19T16:33:33;18.90;91.00
44170;DHT22;29836;52.286;9.576;2023-09-19T16:35:59;18.90;91.30
44170;DHT22;29836;52.286;9.576;2023-09-19T16:38:26;18.90;91.60
44170;DHT22;29836;52.286;9.576;2023-09-19T16:41:01;18.90;91.40